sensor_id;sensor_type;location;lat;lon;timestamp;P1;durP1;ratioP1;P2;durP2;ratioP2
20397;SDS011;10358;49.590;11.030;2023-03-18T00:02:03;9.13;;;2.30;;
20397;SDS011;10358;49.590;11.030;2023-03-18T00:04:29;5.70;;;2.03;;
20397;SDS011;10358;49.590;11.030;2023-03-18T00:06:55;4.23;;;2.33;;
20397;SDS011;10358;49.590;11.030;2023-03-18T00:09:21;3.33;;;2.13;;
20397;SDS011;10358;49.590;11.030;2023-03-18T00:11:47;5.83;;;2.70;;
20397;SDS011;10358;49.590;11.030;2023-03-18T00:14:13;4.80;;;2.37;;
20397;SDS011;10358;49.590;11.030;2023-03-18T00:16:39;4.40;;;2.50;;
20397;SDS011;10358;49.590;11.030;2023-03-18T00:19:05;3.87;;;2.10;;
20397;SDS011;10358;49.590;11.030;2023-03-18T00:21:31;5.77;;;2.17;;
20397;SDS011;10358;49.590;11.030;2023-03-18T00:23:57;5.13;;;2.20;;
20397;SDS011;10358;49.590;11.030;2023-03-18T00:26:24;5.70;;;2.50;;
20397;SDS011;10358;49.590;11.030;2023-03-18T00:28:51;4.77;;;2.63;;
20397;SDS011;10358;49.590;11.030;2023-03-18T00:31:19;4.30;;;2.33;;
20397;SDS011;10358;49.590;11.030;2023-03-18T00:33:45;5.53;;;2.40;;
20397;SDS011;10358;49.590;11.030;2023-03-18T00:36:12;3.90;;;2.40;;
20397;SDS011;10358;49.590;11.030;2023-03-18T00:38:42;4.60;;;2.40;;
20397;SDS011;10358;49.590;11.030;2023-03-18T00:41:10;10.47;;;2.60;;
20397;SDS011;10358;49.590;11.030;2023-03-18T00:43:40;4.27;;;2.30;;
20397;SDS011;10358;49.590;11.030;2023-03-18T00:46:15;5.13;;;2.60;;
20397;SDS011;10358;49.590;11.030;2023-03-18T00:48:44;7.37;;;2.63;;
20397;SDS011;10358;49.590;11.030;2023-03-18T00:51:11;4.30;;;2.43;;
20397;SDS011;10358;49.590;11.030;2023-03-18T00:53:41;5.77;;;3.17;;
20397;SDS011;10358;49.590;11.030;2023-03-18T00:56:18;6.20;;;2.53;;
20397;SDS011;10358;49.590;11.030;2023-03-18T00:58:46;3.90;;;2.37;;
20397;SDS011;10358;49.590;11.030;2023-03-18T01:01:13;6.77;;;2.70;;
20397;SDS011;10358;49.590;11.030;2023-03-18T01:03:39;10.30;;;2.57;;
20397;SDS011;10358;49.590;11.030;2023-03-18T01:06:06;4.17;;;2.13;;
20397;SDS011;10358;49.590;11.030;2023-03-18T01:08:34;8.73;;;2.73;;
20397;SDS011;10358;49.590;11.030;2023-03-18T01:11:00;7.13;;;2.57;;
20397;SDS011;10358;49.590;11.030;2023-03-18T01:13:27;4.37;;;2.40;;
20397;SDS011;10358;49.590;11.030;2023-03-18T01:15:53;4.20;;;2.37;;
20397;SDS011;10358;49.590;11.030;2023-03-18T01:18:20;4.97;;;2.47;;
20397;SDS011;10358;49.590;11.030;2023-03-18T01:20:47;4.30;;;2.20;;
20397;SDS011;10358;49.590;11.030;2023-03-18T01:23:14;5.10;;;2.53;;
20397;SDS011;10358;49.590;11.030;2023-03-18T01:25:40;4.27;;;2.30;;
20397;SDS011;10358;49.590;11.030;2023-03-18T01:28:07;4.63;;;2.27;;
20397;SDS011;10358;49.590;11.030;2023-03-18T01:30:32;6.67;;;3.00;;
20397;SDS011;10358;49.590;11.030;2023-03-18T01:33:00;5.03;;;2.47;;
20397;SDS011;10358;49.590;11.030;2023-03-18T01:35:28;6.67;;;2.67;;
20397;SDS011;10358;49.590;11.030;2023-03-18T01:37:54;3.60;;;2.37;;
20397;SDS011;10358;49.590;11.030;2023-03-18T01:40:20;4.60;;;2.43;;
20397;SDS011;10358;49.590;11.030;2023-03-18T01:42:56;8.27;;;2.70;;
20397;SDS011;10358;49.590;11.030;2023-03-18T01:45:45;3.90;;;2.40;;
20397;SDS011;10358;49.590;11.030;2023-03-18T01:48:14;4.70;;;2.47;;
20397;SDS011;10358;49.590;11.030;2023-03-18T01:50:43;5.23;;;2.60;;
20397;SDS011;10358;49.590;11.030;2023-03-18T01:53:12;5.07;;;3.00;;
20397;SDS011;10358;49.590;11.030;2023-03-18T01:55:39;5.77;;;2.93;;
20397;SDS011;10358;49.590;11.030;2023-03-18T01:58:07;5.90;;;3.00;;
20397;SDS011;10358;49.590;11.030;2023-03-18T02:00:42;5.80;;;2.80;;
20397;SDS011;10358;49.590;11.030;2023-03-18T02:03:12;8.37;;;2.97;;
20397;SDS011;10358;49.590;11.030;2023-03-18T02:05:38;6.17;;;3.20;;
20397;SDS011;10358;49.590;11.030;2023-03-18T02:08:07;4.47;;;3.13;;
20397;SDS011;10358;49.590;11.030;2023-03-18T02:10:33;4.87;;;2.87;;
20397;SDS011;10358;49.590;11.030;2023-03-18T02:13:03;6.33;;;3.10;;
20397;SDS011;10358;49.590;11.030;2023-03-18T02:15:31;6.87;;;3.00;;
20397;SDS011;10358;49.590;11.030;2023-03-18T02:18:01;8.90;;;3.00;;
20397;SDS011;10358;49.590;11.030;2023-03-18T02:28:27;7.67;;;3.17;;
20397;SDS011;10358;49.590;11.030;2023-03-18T02:30:59;7.17;;;2.93;;
20397;SDS011;10358;49.590;11.030;2023-03-18T02:33:28;5.20;;;3.27;;
20397;SDS011;10358;49.590;11.030;2023-03-18T02:36:04;5.03;;;2.97;;
20397;SDS011;10358;49.590;11.030;2023-03-18T02:38:33;6.13;;;3.10;;
20397;SDS011;10358;49.590;11.030;2023-03-18T02:40:59;7.93;;;2.90;;
20397;SDS011;10358;49.590;11.030;2023-03-18T02:43:26;5.73;;;3.20;;
20397;SDS011;10358;49.590;11.030;2023-03-18T02:45:57;4.37;;;2.67;;
20397;SDS011;10358;49.590;11.030;2023-03-18T02:48:39;4.50;;;2.73;;
20397;SDS011;10358;49.590;11.030;2023-03-18T02:51:07;5.00;;;2.90;;
20397;SDS011;10358;49.590;11.030;2023-03-18T02:53:34;6.73;;;3.23;;
20397;SDS011;10358;49.590;11.030;2023-03-18T02:56:00;7.23;;;3.27;;
20397;SDS011;10358;49.590;11.030;2023-03-18T02:58:26;6.57;;;3.00;;
20397;SDS011;10358;49.590;11.030;2023-03-18T03:00:52;5.50;;;2.97;;
20397;SDS011;10358;49.590;11.030;2023-03-18T03:03:19;7.90;;;3.40;;
20397;SDS011;10358;49.590;11.030;2023-03-18T03:05:45;8.10;;;3.77;;
20397;SDS011;10358;49.590;11.030;2023-03-18T03:08:11;5.10;;;3.10;;
20397;SDS011;10358;49.590;11.030;2023-03-18T03:10:38;7.70;;;4.13;;
20397;SDS011;10358;49.590;11.030;2023-03-18T03:13:03;9.20;;;3.43;;
20397;SDS011;10358;49.590;11.030;2023-03-18T03:15:30;6.37;;;3.10;;
20397;SDS011;10358;49.590;11.030;2023-03-18T03:17:56;6.93;;;3.43;;
20397;SDS011;10358;49.590;11.030;2023-03-18T03:20:23;7.83;;;3.13;;
20397;SDS011;10358;49.590;11.030;2023-03-18T03:22:48;5.90;;;3.57;;
20397;SDS011;10358;49.590;11.030;2023-03-18T03:25:14;6.10;;;3.40;;
20397;SDS011;10358;49.590;11.030;2023-03-18T03:27:40;7.40;;;3.83;;
20397;SDS011;10358;49.590;11.030;2023-03-18T03:30:10;6.27;;;3.50;;
20397;SDS011;10358;49.590;11.030;2023-03-18T03:32:36;6.83;;;3.30;;
20397;SDS011;10358;49.590;11.030;2023-03-18T03:35:03;6.20;;;3.30;;
20397;SDS011;10358;49.590;11.030;2023-03-18T03:37:31;5.77;;;3.33;;
20397;SDS011;10358;49.590;11.030;2023-03-18T03:39:57;8.27;;;3.37;;
20397;SDS011;10358;49.590;11.030;2023-03-18T03:42:23;7.87;;;3.57;;
20397;SDS011;10358;49.590;11.030;2023-03-18T03:44:49;7.00;;;3.27;;
20397;SDS011;10358;49.590;11.030;2023-03-18T03:47:15;5.57;;;3.47;;
20397;SDS011;10358;49.590;11.030;2023-03-18T03:49:40;8.63;;;3.23;;
20397;SDS011;10358;49.590;11.030;2023-03-18T03:52:06;7.50;;;3.70;;
20397;SDS011;10358;49.590;11.030;2023-03-18T03:54:32;6.73;;;3.30;;
20397;SDS011;10358;49.590;11.030;2023-03-18T03:56:57;5.30;;;3.20;;
20397;SDS011;10358;49.590;11.030;2023-03-18T03:59:23;7.00;;;3.40;;
20397;SDS011;10358;49.590;11.030;2023-03-18T04:01:49;6.50;;;3.10;;
20397;SDS011;10358;49.590;11.030;2023-03-18T04:04:15;6.13;;;3.37;;
20397;SDS011;10358;49.590;11.030;2023-03-18T04:06:40;6.93;;;3.30;;
20397;SDS011;10358;49.590;11.030;2023-03-18T04:09:06;9.10;;;3.10;;
20397;SDS011;10358;49.590;11.030;2023-03-18T04:11:31;5.03;;;2.97;;
20397;SDS011;10358;49.590;11.030;2023-03-18T04:13:57;7.33;;;3.60;;
20397;SDS011;10358;49.590;11.030;2023-03-18T04:16:22;5.87;;;3.10;;
20397;SDS011;10358;49.590;11.030;2023-03-18T04:18:48;5.10;;;2.80;;
20397;SDS011;10358;49.590;11.030;2023-03-18T04:21:14;7.70;;;3.00;;
20397;SDS011;10358;49.590;11.030;2023-03-18T04:23:40;3.63;;;2.60;;
20397;SDS011;10358;49.590;11.030;2023-03-18T04:26:05;5.63;;;3.23;;
20397;SDS011;10358;49.590;11.030;2023-03-18T04:28:31;4.73;;;2.90;;
20397;SDS011;10358;49.590;11.030;2023-03-18T04:30:57;5.23;;;3.00;;
20397;SDS011;10358;49.590;11.030;2023-03-18T04:33:23;5.23;;;2.97;;
20397;SDS011;10358;49.590;11.030;2023-03-18T04:35:49;7.67;;;3.47;;
20397;SDS011;10358;49.590;11.030;2023-03-18T04:38:15;6.53;;;3.17;;
20397;SDS011;10358;49.590;11.030;2023-03-18T04:40:40;7.43;;;3.50;;
20397;SDS011;10358;49.590;11.030;2023-03-18T04:43:06;7.53;;;3.20;;
20397;SDS011;10358;49.590;11.030;2023-03-18T04:45:34;5.57;;;2.90;;
20397;SDS011;10358;49.590;11.030;2023-03-18T04:47:59;7.03;;;3.50;;
20397;SDS011;10358;49.590;11.030;2023-03-18T04:50:25;5.77;;;3.00;;
20397;SDS011;10358;49.590;11.030;2023-03-18T04:52:52;5.03;;;3.20;;
20397;SDS011;10358;49.590;11.030;2023-03-18T04:55:18;5.20;;;3.47;;
20397;SDS011;10358;49.590;11.030;2023-03-18T04:57:45;6.43;;;3.40;;
20397;SDS011;10358;49.590;11.030;2023-03-18T05:00:13;7.70;;;3.37;;
20397;SDS011;10358;49.590;11.030;2023-03-18T05:02:41;4.63;;;2.90;;
20397;SDS011;10358;49.590;11.030;2023-03-18T05:05:07;7.53;;;3.20;;
20397;SDS011;10358;49.590;11.030;2023-03-18T05:07:34;6.37;;;3.07;;
20397;SDS011;10358;49.590;11.030;2023-03-18T05:10:01;5.43;;;3.27;;
20397;SDS011;10358;49.590;11.030;2023-03-18T05:12:27;6.47;;;3.40;;
20397;SDS011;10358;49.590;11.030;2023-03-18T05:14:53;5.53;;;3.10;;
20397;SDS011;10358;49.590;11.030;2023-03-18T05:17:18;6.80;;;3.00;;
20397;SDS011;10358;49.590;11.030;2023-03-18T05:19:45;4.83;;;3.07;;
20397;SDS011;10358;49.590;11.030;2023-03-18T05:22:12;5.33;;;3.40;;
20397;SDS011;10358;49.590;11.030;2023-03-18T05:24:39;5.80;;;3.30;;
20397;SDS011;10358;49.590;11.030;2023-03-18T05:27:07;9.93;;;3.70;;
20397;SDS011;10358;49.590;11.030;2023-03-18T05:29:33;6.00;;;3.50;;
20397;SDS011;10358;49.590;11.030;2023-03-18T05:31:59;6.77;;;3.57;;
20397;SDS011;10358;49.590;11.030;2023-03-18T05:34:24;9.20;;;3.70;;
20397;SDS011;10358;49.590;11.030;2023-03-18T05:36:51;5.40;;;3.27;;
20397;SDS011;10358;49.590;11.030;2023-03-18T05:39:16;6.57;;;3.13;;
20397;SDS011;10358;49.590;11.030;2023-03-18T05:41:42;7.47;;;3.20;;
20397;SDS011;10358;49.590;11.030;2023-03-18T05:44:08;6.13;;;3.47;;
20397;SDS011;10358;49.590;11.030;2023-03-18T05:46:34;6.00;;;3.20;;
20397;SDS011;10358;49.590;11.030;2023-03-18T05:48:59;8.07;;;4.13;;
20397;SDS011;10358;49.590;11.030;2023-03-18T05:51:25;9.37;;;3.67;;
20397;SDS011;10358;49.590;11.030;2023-03-18T05:53:50;6.87;;;3.10;;
20397;SDS011;10358;49.590;11.030;2023-03-18T05:56:16;7.10;;;3.40;;
20397;SDS011;10358;49.590;11.030;2023-03-18T05:58:42;7.27;;;3.43;;
20397;SDS011;10358;49.590;11.030;2023-03-18T06:01:08;7.27;;;3.67;;
20397;SDS011;10358;49.590;11.030;2023-03-18T06:03:35;4.97;;;3.23;;
20397;SDS011;10358;49.590;11.030;2023-03-18T06:06:01;8.17;;;3.80;;
20397;SDS011;10358;49.590;11.030;2023-03-18T06:08:27;11.03;;;3.63;;
20397;SDS011;10358;49.590;11.030;2023-03-18T06:10:53;8.00;;;3.10;;
20397;SDS011;10358;49.590;11.030;2023-03-18T06:13:19;8.90;;;3.30;;
20397;SDS011;10358;49.590;11.030;2023-03-18T06:15:45;5.90;;;3.30;;
20397;SDS011;10358;49.590;11.030;2023-03-18T06:18:11;6.27;;;3.10;;
20397;SDS011;10358;49.590;11.030;2023-03-18T06:20:37;6.17;;;3.40;;
20397;SDS011;10358;49.590;11.030;2023-03-18T06:23:03;6.67;;;3.50;;
20397;SDS011;10358;49.590;11.030;2023-03-18T06:25:29;8.17;;;3.30;;
20397;SDS011;10358;49.590;11.030;2023-03-18T06:27:55;7.03;;;3.47;;
20397;SDS011;10358;49.590;11.030;2023-03-18T06:30:21;7.30;;;3.40;;
20397;SDS011;10358;49.590;11.030;2023-03-18T06:32:47;6.87;;;3.10;;
20397;SDS011;10358;49.590;11.030;2023-03-18T06:35:13;6.67;;;3.30;;
20397;SDS011;10358;49.590;11.030;2023-03-18T06:37:40;5.33;;;3.17;;
20397;SDS011;10358;49.590;11.030;2023-03-18T06:40:06;6.80;;;3.23;;
20397;SDS011;10358;49.590;11.030;2023-03-18T06:42:33;5.70;;;3.30;;
20397;SDS011;10358;49.590;11.030;2023-03-18T06:44:59;7.00;;;3.60;;
20397;SDS011;10358;49.590;11.030;2023-03-18T06:47:25;6.57;;;3.43;;
20397;SDS011;10358;49.590;11.030;2023-03-18T06:49:50;6.20;;;3.50;;
20397;SDS011;10358;49.590;11.030;2023-03-18T06:52:17;7.20;;;3.33;;
20397;SDS011;10358;49.590;11.030;2023-03-18T06:54:43;7.57;;;3.50;;
20397;SDS011;10358;49.590;11.030;2023-03-18T06:57:09;7.10;;;3.50;;
20397;SDS011;10358;49.590;11.030;2023-03-18T06:59:36;7.07;;;3.47;;
20397;SDS011;10358;49.590;11.030;2023-03-18T07:02:02;9.77;;;3.50;;
20397;SDS011;10358;49.590;11.030;2023-03-18T07:04:29;8.20;;;3.40;;
20397;SDS011;10358;49.590;11.030;2023-03-18T07:06:55;7.30;;;3.30;;
20397;SDS011;10358;49.590;11.030;2023-03-18T07:09:21;6.20;;;2.80;;
20397;SDS011;10358;49.590;11.030;2023-03-18T07:11:48;8.57;;;3.57;;
20397;SDS011;10358;49.590;11.030;2023-03-18T07:14:14;6.50;;;3.23;;
20397;SDS011;10358;49.590;11.030;2023-03-18T07:16:40;6.20;;;3.30;;
20397;SDS011;10358;49.590;11.030;2023-03-18T07:19:05;9.90;;;3.37;;
20397;SDS011;10358;49.590;11.030;2023-03-18T07:21:31;5.77;;;3.20;;
20397;SDS011;10358;49.590;11.030;2023-03-18T07:23:57;6.30;;;3.20;;
20397;SDS011;10358;49.590;11.030;2023-03-18T07:26:23;5.40;;;3.47;;
20397;SDS011;10358;49.590;11.030;2023-03-18T07:28:49;5.10;;;3.30;;
20397;SDS011;10358;49.590;11.030;2023-03-18T07:31:15;5.47;;;3.13;;
20397;SDS011;10358;49.590;11.030;2023-03-18T07:33:41;6.87;;;3.50;;
20397;SDS011;10358;49.590;11.030;2023-03-18T07:36:07;6.73;;;3.50;;
20397;SDS011;10358;49.590;11.030;2023-03-18T07:38:33;9.73;;;4.47;;
20397;SDS011;10358;49.590;11.030;2023-03-18T07:40:59;7.67;;;4.10;;
20397;SDS011;10358;49.590;11.030;2023-03-18T07:43:24;8.87;;;3.93;;
20397;SDS011;10358;49.590;11.030;2023-03-18T07:45:50;8.87;;;4.63;;
20397;SDS011;10358;49.590;11.030;2023-03-18T07:48:16;7.20;;;4.13;;
20397;SDS011;10358;49.590;11.030;2023-03-18T07:50:41;7.83;;;4.07;;
20397;SDS011;10358;49.590;11.030;2023-03-18T07:53:07;9.80;;;4.10;;
20397;SDS011;10358;49.590;11.030;2023-03-18T07:55:33;7.70;;;4.20;;
20397;SDS011;10358;49.590;11.030;2023-03-18T07:57:59;10.63;;;4.43;;
20397;SDS011;10358;49.590;11.030;2023-03-18T08:00:24;7.93;;;4.50;;
20397;SDS011;10358;49.590;11.030;2023-03-18T08:02:51;6.97;;;4.03;;
20397;SDS011;10358;49.590;11.030;2023-03-18T08:05:16;7.17;;;4.23;;
20397;SDS011;10358;49.590;11.030;2023-03-18T08:07:43;8.57;;;3.90;;
20397;SDS011;10358;49.590;11.030;2023-03-18T08:10:09;8.67;;;3.87;;
20397;SDS011;10358;49.590;11.030;2023-03-18T08:12:35;6.93;;;3.70;;
20397;SDS011;10358;49.590;11.030;2023-03-18T08:15:02;8.00;;;3.90;;
20397;SDS011;10358;49.590;11.030;2023-03-18T08:17:28;9.73;;;4.33;;
20397;SDS011;10358;49.590;11.030;2023-03-18T08:19:54;8.07;;;4.33;;
20397;SDS011;10358;49.590;11.030;2023-03-18T08:22:20;9.33;;;4.30;;
20397;SDS011;10358;49.590;11.030;2023-03-18T08:24:46;7.30;;;3.80;;
20397;SDS011;10358;49.590;11.030;2023-03-18T08:27:11;8.93;;;4.43;;
20397;SDS011;10358;49.590;11.030;2023-03-18T08:29:37;9.20;;;4.57;;
20397;SDS011;10358;49.590;11.030;2023-03-18T08:32:02;11.70;;;3.97;;
20397;SDS011;10358;49.590;11.030;2023-03-18T08:34:28;8.13;;;3.40;;
20397;SDS011;10358;49.590;11.030;2023-03-18T08:36:54;9.20;;;3.87;;
20397;SDS011;10358;49.590;11.030;2023-03-18T08:39:19;8.37;;;3.70;;
20397;SDS011;10358;49.590;11.030;2023-03-18T08:41:46;10.07;;;4.57;;
20397;SDS011;10358;49.590;11.030;2023-03-18T08:44:12;7.30;;;3.80;;
20397;SDS011;10358;49.590;11.030;2023-03-18T08:46:38;6.90;;;3.80;;
20397;SDS011;10358;49.590;11.030;2023-03-18T08:49:04;6.90;;;4.00;;
20397;SDS011;10358;49.590;11.030;2023-03-18T08:51:30;9.50;;;4.10;;
20397;SDS011;10358;49.590;11.030;2023-03-18T08:53:56;8.13;;;3.67;;
20397;SDS011;10358;49.590;11.030;2023-03-18T08:56:22;5.43;;;3.27;;
20397;SDS011;10358;49.590;11.030;2023-03-18T08:58:48;8.90;;;4.20;;
20397;SDS011;10358;49.590;11.030;2023-03-18T09:01:15;9.90;;;4.07;;
20397;SDS011;10358;49.590;11.030;2023-03-18T09:03:41;10.63;;;4.30;;
20397;SDS011;10358;49.590;11.030;2023-03-18T09:06:07;9.67;;;3.93;;
20397;SDS011;10358;49.590;11.030;2023-03-18T09:08:33;10.17;;;4.00;;
20397;SDS011;10358;49.590;11.030;2023-03-18T09:10:59;8.73;;;3.73;;
20397;SDS011;10358;49.590;11.030;2023-03-18T09:13:25;8.40;;;3.97;;
20397;SDS011;10358;49.590;11.030;2023-03-18T09:15:51;9.73;;;4.07;;
20397;SDS011;10358;49.590;11.030;2023-03-18T09:18:16;7.10;;;4.30;;
20397;SDS011;10358;49.590;11.030;2023-03-18T09:20:43;12.13;;;3.90;;
20397;SDS011;10358;49.590;11.030;2023-03-18T09:23:10;9.83;;;3.50;;
20397;SDS011;10358;49.590;11.030;2023-03-18T09:25:37;5.93;;;3.43;;
20397;SDS011;10358;49.590;11.030;2023-03-18T09:28:03;6.53;;;3.50;;
20397;SDS011;10358;49.590;11.030;2023-03-18T09:30:29;6.60;;;3.20;;
20397;SDS011;10358;49.590;11.030;2023-03-18T09:32:55;10.53;;;3.47;;
20397;SDS011;10358;49.590;11.030;2023-03-18T09:35:21;8.53;;;3.23;;
20397;SDS011;10358;49.590;11.030;2023-03-18T09:37:48;8.83;;;3.30;;
20397;SDS011;10358;49.590;11.030;2023-03-18T09:40:15;5.67;;;3.07;;
20397;SDS011;10358;49.590;11.030;2023-03-18T09:42:58;6.20;;;2.90;;
20397;SDS011;10358;49.590;11.030;2023-03-18T09:45:41;9.07;;;3.23;;
20397;SDS011;10358;49.590;11.030;2023-03-18T09:48:43;6.30;;;2.83;;
20397;SDS011;10358;49.590;11.030;2023-03-18T09:51:31;5.73;;;2.63;;
20397;SDS011;10358;49.590;11.030;2023-03-18T09:54:03;6.17;;;2.50;;
20397;SDS011;10358;49.590;11.030;2023-03-18T09:56:46;4.97;;;2.80;;
20397;SDS011;10358;49.590;11.030;2023-03-18T10:01:52;4.10;;;2.67;;
20397;SDS011;10358;49.590;11.030;2023-03-18T10:04:21;5.23;;;2.80;;
20397;SDS011;10358;49.590;11.030;2023-03-18T10:07:06;5.97;;;2.40;;
20397;SDS011;10358;49.590;11.030;2023-03-18T10:09:46;9.50;;;2.53;;
20397;SDS011;10358;49.590;11.030;2023-03-18T10:12:29;8.83;;;2.50;;
20397;SDS011;10358;49.590;11.030;2023-03-18T10:15:20;6.10;;;2.57;;
20397;SDS011;10358;49.590;11.030;2023-03-18T10:22:56;8.13;;;2.47;;
20397;SDS011;10358;49.590;11.030;2023-03-18T10:25:29;5.20;;;2.23;;
20397;SDS011;10358;49.590;11.030;2023-03-18T10:28:14;7.80;;;2.47;;
20397;SDS011;10358;49.590;11.030;2023-03-18T10:31:07;9.73;;;2.40;;
20397;SDS011;10358;49.590;11.030;2023-03-18T10:33:46;5.57;;;2.03;;
20397;SDS011;10358;49.590;11.030;2023-03-18T10:36:21;6.07;;;2.50;;
20397;SDS011;10358;49.590;11.030;2023-03-18T10:39:23;5.57;;;2.58;;
20397;SDS011;10358;49.590;11.030;2023-03-18T10:41:51;8.63;;;2.63;;
20397;SDS011;10358;49.590;11.030;2023-03-18T10:44:23;8.52;;;2.08;;
20397;SDS011;10358;49.590;11.030;2023-03-18T10:47:04;7.70;;;2.60;;
20397;SDS011;10358;49.590;11.030;2023-03-18T10:49:51;5.53;;;2.00;;
20397;SDS011;10358;49.590;11.030;2023-03-18T10:55:07;6.20;;;2.33;;
20397;SDS011;10358;49.590;11.030;2023-03-18T10:57:39;6.93;;;2.03;;
20397;SDS011;10358;49.590;11.030;2023-03-18T11:00:07;8.75;;;2.88;;
20397;SDS011;10358;49.590;11.030;2023-03-18T11:02:59;8.73;;;2.63;;
20397;SDS011;10358;49.590;11.030;2023-03-18T11:05:27;7.25;;;2.42;;
20397;SDS011;10358;49.590;11.030;2023-03-18T11:10:31;6.07;;;2.00;;
20397;SDS011;10358;49.590;11.030;2023-03-18T11:13:01;8.88;;;2.20;;
20397;SDS011;10358;49.590;11.030;2023-03-18T11:15:35;5.07;;;1.85;;
20397;SDS011;10358;49.590;11.030;2023-03-18T11:18:03;9.15;;;1.92;;
20397;SDS011;10358;49.590;11.030;2023-03-18T11:23:01;6.75;;;1.98;;
20397;SDS011;10358;49.590;11.030;2023-03-18T11:25:36;6.20;;;1.98;;
20397;SDS011;10358;49.590;11.030;2023-03-18T11:28:03;4.90;;;2.22;;
20397;SDS011;10358;49.590;11.030;2023-03-18T11:30:34;4.57;;;2.03;;
20397;SDS011;10358;49.590;11.030;2023-03-18T11:33:20;7.72;;;1.90;;
20397;SDS011;10358;49.590;11.030;2023-03-18T11:40:48;6.25;;;1.85;;
20397;SDS011;10358;49.590;11.030;2023-03-18T11:43:21;6.20;;;1.98;;
20397;SDS011;10358;49.590;11.030;2023-03-18T11:48:27;8.32;;;1.77;;
20397;SDS011;10358;49.590;11.030;2023-03-18T11:50:59;4.72;;;1.75;;
20397;SDS011;10358;49.590;11.030;2023-03-18T11:56:22;5.20;;;1.80;;
20397;SDS011;10358;49.590;11.030;2023-03-18T11:59:12;3.93;;;1.50;;
20397;SDS011;10358;49.590;11.030;2023-03-18T12:02:12;6.05;;;2.05;;
20397;SDS011;10358;49.590;11.030;2023-03-18T12:07:45;4.95;;;1.35;;
20397;SDS011;10358;49.590;11.030;2023-03-18T12:15:58;4.75;;;1.73;;
20397;SDS011;10358;49.590;11.030;2023-03-18T12:21:07;5.95;;;1.88;;
20397;SDS011;10358;49.590;11.030;2023-03-18T12:42:48;5.93;;;2.10;;
20397;SDS011;10358;49.590;11.030;2023-03-18T12:45:37;4.57;;;1.80;;
20397;SDS011;10358;49.590;11.030;2023-03-18T12:48:08;2.85;;;1.65;;
20397;SDS011;10358;49.590;11.030;2023-03-18T12:50:41;4.65;;;2.35;;
20397;SDS011;10358;49.590;11.030;2023-03-18T12:55:42;5.53;;;2.13;;
20397;SDS011;10358;49.590;11.030;2023-03-18T12:58:11;5.18;;;2.20;;
20397;SDS011;10358;49.590;11.030;2023-03-18T13:05:56;3.72;;;2.03;;
20397;SDS011;10358;49.590;11.030;2023-03-18T13:11:18;5.32;;;2.15;;
20397;SDS011;10358;49.590;11.030;2023-03-18T13:14:23;5.50;;;1.83;;
20397;SDS011;10358;49.590;11.030;2023-03-18T13:16:53;7.65;;;2.10;;
20397;SDS011;10358;49.590;11.030;2023-03-18T13:19:20;6.43;;;1.95;;
20397;SDS011;10358;49.590;11.030;2023-03-18T13:21:50;5.53;;;2.13;;
20397;SDS011;10358;49.590;11.030;2023-03-18T13:24:31;5.70;;;2.20;;
20397;SDS011;10358;49.590;11.030;2023-03-18T13:27:16;4.75;;;2.00;;
20397;SDS011;10358;49.590;11.030;2023-03-18T13:29:59;5.45;;;2.10;;
20397;SDS011;10358;49.590;11.030;2023-03-18T13:38:21;7.18;;;2.00;;
20397;SDS011;10358;49.590;11.030;2023-03-18T13:43:25;6.75;;;2.17;;
20397;SDS011;10358;49.590;11.030;2023-03-18T13:45:52;6.60;;;1.90;;
20397;SDS011;10358;49.590;11.030;2023-03-18T13:48:21;7.20;;;2.10;;
20397;SDS011;10358;49.590;11.030;2023-03-18T13:50:58;8.25;;;2.00;;
20397;SDS011;10358;49.590;11.030;2023-03-18T13:54:04;3.92;;;2.00;;
20397;SDS011;10358;49.590;11.030;2023-03-18T14:01:57;4.95;;;1.70;;
20397;SDS011;10358;49.590;11.030;2023-03-18T14:04:44;3.17;;;1.67;;
20397;SDS011;10358;49.590;11.030;2023-03-18T14:07:14;4.38;;;1.90;;
20397;SDS011;10358;49.590;11.030;2023-03-18T14:20:08;5.22;;;1.83;;
20397;SDS011;10358;49.590;11.030;2023-03-18T14:22:44;6.25;;;1.80;;
20397;SDS011;10358;49.590;11.030;2023-03-18T14:25:18;5.35;;;2.05;;
20397;SDS011;10358;49.590;11.030;2023-03-18T14:27:53;5.38;;;2.03;;
20397;SDS011;10358;49.590;11.030;2023-03-18T14:30:47;5.10;;;2.13;;
20397;SDS011;10358;49.590;11.030;2023-03-18T14:35:48;5.88;;;2.00;;
20397;SDS011;10358;49.590;11.030;2023-03-18T14:40:54;4.80;;;1.88;;
20397;SDS011;10358;49.590;11.030;2023-03-18T14:43:26;5.28;;;1.70;;
20397;SDS011;10358;49.590;11.030;2023-03-18T14:46:02;7.57;;;1.50;;
20397;SDS011;10358;49.590;11.030;2023-03-18T14:48:32;5.40;;;2.05;;
20397;SDS011;10358;49.590;11.030;2023-03-18T14:51:02;4.93;;;1.98;;
20397;SDS011;10358;49.590;11.030;2023-03-18T14:56:27;8.15;;;2.00;;
20397;SDS011;10358;49.590;11.030;2023-03-18T14:58:55;6.57;;;1.77;;
20397;SDS011;10358;49.590;11.030;2023-03-18T15:01:22;3.58;;;1.73;;
20397;SDS011;10358;49.590;11.030;2023-03-18T15:03:50;4.45;;;1.70;;
20397;SDS011;10358;49.590;11.030;2023-03-18T15:06:20;2.95;;;1.55;;
20397;SDS011;10358;49.590;11.030;2023-03-18T15:08:50;3.58;;;1.48;;
20397;SDS011;10358;49.590;11.030;2023-03-18T15:11:20;3.75;;;1.65;;
20397;SDS011;10358;49.590;11.030;2023-03-18T15:13:48;3.88;;;1.60;;
20397;SDS011;10358;49.590;11.030;2023-03-18T15:16:21;4.57;;;1.80;;
20397;SDS011;10358;49.590;11.030;2023-03-18T15:18:51;2.90;;;1.70;;
20397;SDS011;10358;49.590;11.030;2023-03-18T15:21:25;7.78;;;1.80;;
20397;SDS011;10358;49.590;11.030;2023-03-18T15:23:55;5.10;;;1.70;;
20397;SDS011;10358;49.590;11.030;2023-03-18T15:26:27;4.80;;;1.95;;
20397;SDS011;10358;49.590;11.030;2023-03-18T15:28:56;3.58;;;1.60;;
20397;SDS011;10358;49.590;11.030;2023-03-18T15:31:26;5.78;;;1.80;;
20397;SDS011;10358;49.590;11.030;2023-03-18T15:36:38;3.08;;;1.73;;
20397;SDS011;10358;49.590;11.030;2023-03-18T15:39:48;6.90;;;1.67;;
20397;SDS011;10358;49.590;11.030;2023-03-18T15:42:14;4.65;;;1.58;;
20397;SDS011;10358;49.590;11.030;2023-03-18T15:44:43;6.35;;;1.95;;
20397;SDS011;10358;49.590;11.030;2023-03-18T15:47:18;4.00;;;1.70;;
20397;SDS011;10358;49.590;11.030;2023-03-18T15:52:39;7.30;;;1.70;;
20397;SDS011;10358;49.590;11.030;2023-03-18T15:57:55;7.20;;;2.15;;
20397;SDS011;10358;49.590;11.030;2023-03-18T16:00:22;5.60;;;1.60;;
20397;SDS011;10358;49.590;11.030;2023-03-18T16:02:48;6.55;;;1.90;;
20397;SDS011;10358;49.590;11.030;2023-03-18T16:05:21;6.97;;;1.63;;
20397;SDS011;10358;49.590;11.030;2023-03-18T16:07:49;3.10;;;1.60;;
20397;SDS011;10358;49.590;11.030;2023-03-18T16:10:16;8.82;;;2.00;;
20397;SDS011;10358;49.590;11.030;2023-03-18T16:12:46;4.43;;;1.60;;
20397;SDS011;10358;49.590;11.030;2023-03-18T16:15:16;3.45;;;1.70;;
20397;SDS011;10358;49.590;11.030;2023-03-18T16:17:46;5.53;;;1.65;;
20397;SDS011;10358;49.590;11.030;2023-03-18T16:20:16;8.23;;;1.58;;
20397;SDS011;10358;49.590;11.030;2023-03-18T16:22:44;4.38;;;1.70;;
20397;SDS011;10358;49.590;11.030;2023-03-18T16:25:10;4.65;;;1.90;;
20397;SDS011;10358;49.590;11.030;2023-03-18T16:27:37;4.65;;;1.65;;
20397;SDS011;10358;49.590;11.030;2023-03-18T16:30:05;3.25;;;1.67;;
20397;SDS011;10358;49.590;11.030;2023-03-18T16:32:39;5.00;;;1.90;;
20397;SDS011;10358;49.590;11.030;2023-03-18T16:35:05;4.72;;;1.65;;
20397;SDS011;10358;49.590;11.030;2023-03-18T16:37:32;6.22;;;1.95;;
20397;SDS011;10358;49.590;11.030;2023-03-18T16:39:57;7.47;;;2.17;;
20397;SDS011;10358;49.590;11.030;2023-03-18T16:42:25;7.32;;;2.17;;